Time;durP1;ratioP1;P1;durP2;ratioP2;P2;SDS_P1;SDS_P2;PMS_P1;PMS_P2;Temp;Humidity;BMP_temperature;BMP_pressure;BME280_temperature;BME280_humidity;BME280_pressure;Samples;Min_cycle;Max_cycle;Signal;HPM_P1;HPM_P2
2023/04/23 00:00:47;;;;;;;;;7.50;7.50;;;;;15.69;56.24;100267.44;2096741;28;46945;-63
2023/04/23 00:01:48;;;;;;;;;4.00;3.75;;;;;15.69;56.29;100271.94;2096818;28;46464;-63
2023/04/23 00:02:52;;;;;;;;;3.75;3.00;;;;;15.69;56.40;100263.91;2097241;28;46410;-63
2023/04/23 00:03:56;;;;;;;;;5.00;3.25;;;;;15.67;56.59;100263.13;2099336;28;46513;-61
2023/04/23 00:05:03;;;;;;;;;2.00;2.00;;;;;15.67;56.45;100264.00;2105636;27;46346;-61
2023/04/23 00:06:05;;;;;;;;;7.25;4.00;;;;;15.67;56.45;100261.31;2105170;28;46334;-62
2023/04/23 00:07:05;;;;;;;;;4.25;4.25;;;;;15.67;56.57;100263.13;2105395;28;47063;-63
2023/04/23 00:08:07;;;;;;;;;8.75;8.50;;;;;15.68;56.63;100257.69;2105446;28;46294;-62
2023/04/23 00:09:08;;;;;;;;;10.60;10.40;;;;;15.67;56.99;100257.78;2105229;28;46372;-63
2023/04/23 00:10:09;;;;;;;;;6.20;6.20;;;;;15.68;57.02;100262.19;2105250;28;47030;-62
2023/04/23 00:11:10;;;;;;;;;4.75;4.75;;;;;15.68;56.71;100262.19;2105341;28;46579;-64
2023/04/23 00:12:11;;;;;;;;;46.50;37.75;;;;;15.68;57.12;100259.50;2105386;27;45979;-63
2023/04/23 00:13:11;;;;;;;;;45.00;38.00;;;;;15.68;56.75;100265.72;2105535;27;46123;-62
2023/04/23 00:14:12;;;;;;;;;27.50;27.50;;;;;15.70;56.94;100254.94;2105221;28;46457;-63
2023/04/23 00:15:13;;;;;;;;;19.25;17.50;;;;;15.70;57.28;100261.16;2095959;28;47060;-62
2023/04/23 00:16:14;;;;;;;;;26.60;22.20;;;;;15.70;57.04;100257.63;2096147;28;46543;-63
2023/04/23 00:17:15;;;;;;;;;24.00;20.80;;;;;15.70;57.08;100260.28;2105488;28;45753;-63
2023/04/23 00:18:16;;;;;;;;;12.50;12.50;;;;;15.71;57.10;100264.69;2104994;28;46760;-63
2023/04/23 00:19:16;;;;;;;;;7.00;7.00;;;;;15.70;56.76;100261.16;2105144;28;46831;-63
2023/04/23 00:20:16;;;;;;;;;5.00;5.00;;;;;15.69;56.85;100267.44;2105131;28;46531;-63
2023/04/23 00:21:16;;;;;;;;;18.50;18.50;;;;;15.68;56.82;100270.22;2105164;28;47215;-63
2023/04/23 00:22:19;;;;;;;;;12.00;12.00;;;;;15.69;57.20;100277.28;2105204;28;46438;-62
2023/04/23 00:23:19;;;;;;;;;9.80;9.00;;;;;15.69;57.09;100275.47;2104677;28;46398;-61
2023/04/23 00:24:19;;;;;;;;;20.50;19.50;;;;;15.68;57.05;100268.41;2095690;28;46347;-63
2023/04/23 00:25:20;;;;;;;;;27.50;26.00;;;;;15.69;57.36;100266.59;2096461;28;45993;-63
2023/04/23 00:26:20;;;;;;;;;5.00;5.00;;;;;15.69;57.35;100266.59;2105173;28;46053;-61
2023/04/23 00:27:20;;;;;;;;;2.00;2.00;;;;;15.68;57.21;100270.22;2096189;28;45664;-63
2023/04/23 00:28:21;;;;;;;;;3.00;3.00;;;;;15.68;57.33;100272.88;2095151;28;46583;-61
2023/04/23 00:29:21;;;;;;;;;3.00;3.00;;;;;15.68;57.25;100263.06;2111447;27;45663;-62
2023/04/23 00:30:21;;;;;;;;;3.67;3.67;;;;;15.69;57.42;100267.44;2095863;28;46624;-62
2023/04/23 00:31:23;;;;;;;;;3.00;3.00;;;;;15.69;57.11;100266.59;2096188;28;46652;-62
2023/04/23 00:32:23;;;;;;;;;4.50;4.50;;;;;15.68;57.09;100262.19;2101739;28;46937;-62
2023/04/23 00:33:24;;;;;;;;;3.00;3.00;;;;;15.68;57.47;100256.84;2104857;28;46534;-61
2023/04/23 00:34:25;;;;;;;;;3.00;2.00;;;;;15.67;57.18;100261.31;2105562;28;45814;-62
2023/04/23 00:35:25;;;;;;;;;6.00;4.00;;;;;15.68;57.16;100259.50;2104718;28;45095;-62
2023/04/23 00:36:26;;;;;;;;;3.67;3.67;;;;;15.66;57.08;100262.25;2105099;28;46451;-62
2023/04/23 00:37:26;;;;;;;;;13.25;11.25;;;;;15.66;57.13;100259.59;2105134;28;46839;-64
2023/04/23 00:38:26;;;;;;;;;7.67;6.00;;;;;15.67;57.28;100260.44;2105549;28;45705;-61
2023/04/23 00:39:27;;;;;;;;;4.00;3.33;;;;;15.66;57.47;100258.72;2104027;27;46858;-64
2023/04/23 00:40:27;;;;;;;;;4.33;4.33;;;;;15.65;57.33;100257.88;2105333;28;46614;-64
2023/04/23 00:41:27;;;;;;;;;3.67;3.00;;;;;15.66;57.40;100259.59;2105238;28;46456;-62
2023/04/23 00:42:28;;;;;;;;;3.00;3.00;;;;;15.67;57.31;100255.09;2103292;28;46513;-63
2023/04/23 00:43:28;;;;;;;;;2.00;2.00;;;;;15.67;57.22;100263.13;2087895;28;46727;-61
2023/04/23 00:44:28;;;;;;;;;2.33;2.33;;;;;15.67;57.44;100266.66;2101235;28;46256;-62
2023/04/23 00:45:29;;;;;;;;;2.00;2.00;;;;;15.66;57.39;100267.63;2112759;27;46634;-62
2023/04/23 00:46:29;;;;;;;;;2.33;2.33;;;;;15.66;57.13;100256.06;2105476;27;46795;-61
2023/04/23 00:47:30;;;;;;;;;2.67;2.67;;;;;15.64;57.29;100261.47;2105217;28;46393;-62
2023/04/23 00:48:32;;;;;;;;;4.00;4.00;;;;;15.64;57.40;100257.94;2104795;28;46235;-62
2023/04/23 00:49:33;;;;;;;;;2.25;2.25;;;;;15.64;57.60;100257.94;2103404;28;46609;-62
2023/04/23 00:50:33;;;;;;;;;4.00;3.25;;;;;15.63;57.83;100261.56;2105341;28;46300;-62
2023/04/23 00:51:34;;;;;;;;;2.33;2.00;;;;;15.62;57.89;100258.00;2104088;28;46206;-62
2023/04/23 00:52:34;;;;;;;;;2.67;2.00;;;;;15.60;58.06;100266.09;2096153;28;46466;-62
2023/04/23 00:53:35;;;;;;;;;3.33;2.00;;;;;15.59;57.55;100260.78;2096286;28;46973;-62
2023/04/23 00:54:35;;;;;;;;;5.33;5.33;;;;;15.58;57.48;100261.72;2105271;28;45892;-63
2023/04/23 00:55:35;;;;;;;;;3.00;3.00;;;;;15.55;57.63;100252.06;2104774;28;46672;-62
2023/04/23 00:56:36;;;;;;;;;1.67;1.67;;;;;15.54;57.79;100260.16;2104011;28;46808;-62
2023/04/23 00:57:37;;;;;;;;;4.00;4.00;;;;;15.52;58.26;100260.25;2101620;28;46953;-63
2023/04/23 00:58:38;;;;;;;;;5.75;5.00;;;;;15.51;58.29;100257.66;2096737;28;47289;-62
2023/04/23 00:59:39;;;;;;;;;4.67;4.67;;;;;15.51;58.02;100261.19;2103925;28;46032;-63
2023/04/23 01:00:45;;;;;;;;;3.00;3.00;;;;;15.51;58.29;100249.63;2103771;28;46352;-62
2023/04/23 01:01:46;;;;;;;;;7.00;5.00;;;;;15.51;57.70;100250.50;2103973;28;45644;-64
2023/04/23 01:02:49;;;;;;;;;5.75;5.75;;;;;15.51;58.42;100255.84;2102717;28;45743;-63
2023/04/23 01:03:51;;;;;;;;;6.25;5.00;;;;;15.50;58.48;100246.09;2091080;28;45444;-62
2023/04/23 01:04:53;;;;;;;;;6.50;4.25;;;;;15.50;57.94;100251.44;2093266;28;46703;-62
2023/04/23 01:05:54;;;;;;;;;8.00;7.60;;;;;15.51;58.32;100245.13;2101632;28;45686;-63
2023/04/23 01:06:56;;;;;;;;;3.67;3.67;;;;;15.51;58.53;100249.63;2103912;28;46526;-62
2023/04/23 01:07:57;;;;;;;;;12.80;12.80;;;;;15.49;58.44;100246.13;2099664;28;46763;-62
2023/04/23 01:08:57;;;;;;;;;11.75;11.75;;;;;15.49;58.39;100241.66;2098763;28;46415;-62
2023/04/23 01:09:58;;;;;;;;;13.25;13.25;;;;;15.48;58.54;100241.72;2095850;28;46620;-62
2023/04/23 01:10:59;;;;;;;;;4.00;4.00;;;;;15.47;58.70;100248.88;2095008;28;46566;-62
2023/04/23 01:12:01;;;;;;;;;16.40;16.20;;;;;15.47;58.30;100243.53;2104598;28;46975;-62
2023/04/23 01:13:02;;;;;;;;;5.60;4.40;;;;;15.45;58.23;100237.41;2103906;27;46500;-62
2023/04/23 01:14:02;;;;;;;;;9.20;9.20;;;;;15.45;58.72;100234.72;2086724;28;46435;-61
2023/04/23 01:15:04;;;;;;;;;5.00;5.00;;;;;15.45;58.56;100239.22;2076494;28;46312;-62
2023/04/23 01:16:05;;;;;;;;;15.20;13.00;;;;;15.45;58.89;100244.56;2087037;28;47085;-63
2023/04/23 01:17:07;;;;;;;;;4.33;4.33;;;;;15.45;58.64;100236.53;2084944;28;47129;-63
2023/04/23 01:18:08;;;;;;;;;13.80;11.40;;;;;15.43;58.25;100235.75;2078595;28;46964;-62
2023/04/23 01:19:09;;;;;;;;;8.00;7.75;;;;;15.42;58.52;100240.25;2085057;28;45252;-63
2023/04/23 01:20:10;;;;;;;;;2.75;2.25;;;;;15.40;58.62;100233.25;2087092;28;46528;-63
2023/04/23 01:21:11;;;;;;;;;3.00;3.00;;;;;15.39;58.41;100234.19;2085650;28;45862;-62
2023/04/23 01:22:14;;;;;;;;;5.75;5.75;;;;;15.36;58.45;100234.31;2087283;28;46612;-62
2023/04/23 01:23:15;;;;;;;;;5.25;5.25;;;;;15.33;58.91;100227.31;2077990;28;46383;-63
2023/04/23 01:24:16;;;;;;;;;11.80;11.80;;;;;15.32;58.66;100230.94;2078833;28;46901;-62
2023/04/23 01:25:16;;;;;;;;;5.50;4.00;;;;;15.30;58.79;100227.47;2076548;28;46851;-63
2023/04/23 01:26:17;;;;;;;;;47.75;40.00;;;;;15.29;58.98;100229.28;2078730;28;46698;-63
2023/04/23 01:27:19;;;;;;;;;10.80;10.60;;;;;15.30;58.90;100224.78;2085516;28;46644;-63
2023/04/23 01:28:20;;;;;;;;;39.00;33.20;;;;;15.29;58.71;100225.75;2076896;28;46145;-64
2023/04/23 01:29:20;;;;;;;;;5.00;5.00;;;;;15.27;59.14;100225.81;2078684;28;46435;-62
2023/04/23 01:30:22;;;;;;;;;7.50;7.00;;;;;15.28;59.31;100226.69;2087255;28;46245;-62
2023/04/23 01:31:22;;;;;;;;;4.25;4.25;;;;;15.26;59.06;100221.41;2086445;28;48176;-62
2023/04/23 01:32:23;;;;;;;;;22.25;21.75;;;;;15.24;58.86;100220.59;2087045;28;46652;-63
2023/04/23 01:33:25;;;;;;;;;12.50;11.00;;;;;15.25;59.46;100222.34;2087237;28;45562;-63
2023/04/23 01:34:25;;;;;;;;;5.25;5.25;;;;;15.23;59.69;100221.53;2078581;28;46529;-62
2023/04/23 01:35:26;;;;;;;;;2.67;2.67;;;;;15.20;59.47;100220.84;2078998;28;45749;-61
2023/04/23 01:36:27;;;;;;;;;4.50;3.25;;;;;15.18;59.18;100218.25;2087035;28;46235;-61
2023/04/23 01:37:28;;;;;;;;;12.25;10.00;;;;;15.16;59.94;100225.47;2086421;28;46629;-62
2023/04/23 01:38:30;;;;;;;;;9.80;9.00;;;;;15.16;59.76;100228.13;2086999;28;46845;-61
2023/04/23 01:39:31;;;;;;;;;3.25;3.00;;;;;15.14;59.52;100222.00;2086871;28;46431;-62
2023/04/23 01:40:31;;;;;;;;;28.75;26.50;;;;;15.13;59.83;100227.44;2087075;28;46301;-62
2023/04/23 01:41:33;;;;;;;;;14.50;13.50;;;;;15.14;60.24;100230.03;2085820;28;46360;-62
2023/04/23 01:42:33;;;;;;;;;5.75;5.75;;;;;15.11;59.52;100224.81;2086997;28;46972;-62
2023/04/23 01:43:34;;;;;;;;;3.00;3.00;;;;;15.11;59.89;100223.94;2077543;28;46372;-62
2023/04/23 01:44:35;;;;;;;;;11.40;9.60;;;;;15.11;59.61;100230.16;2074226;28;46684;-61
2023/04/23 01:45:35;;;;;;;;;16.75;14.25;;;;;15.10;59.83;100230.22;2079596;28;46293;-62
2023/04/23 01:46:36;;;;;;;;;15.25;15.00;;;;;15.11;59.97;100231.97;2074068;28;46532;-62
2023/04/23 01:47:36;;;;;;;;;15.00;14.25;;;;;15.10;59.90;100230.22;2085878;28;46552;-63
2023/04/23 01:48:37;;;;;;;;;10.33;9.33;;;;;15.09;60.02;100225.81;2105364;28;45019;-62
2023/04/23 01:49:38;;;;;;;;;6.50;6.50;;;;;15.09;60.06;100223.16;2103047;27;45583;-62
2023/04/23 01:50:39;;;;;;;;;3.67;2.67;;;;;15.06;60.25;100221.50;2105001;28;45012;-63
2023/04/23 01:51:39;;;;;;;;;3.25;3.25;;;;;15.05;60.19;100219.78;2104518;28;46739;-62
2023/04/23 01:52:40;;;;;;;;;2.67;2.67;;;;;15.05;60.01;100217.09;2105025;28;45913;-62
2023/04/23 01:53:41;;;;;;;;;2.75;2.25;;;;;15.04;60.62;100217.19;2104654;28;46509;-63
2023/04/23 01:54:41;;;;;;;;;2.00;1.33;;;;;15.01;60.23;100221.72;2105259;27;46378;-63
2023/04/23 01:55:44;;;;;;;;;3.00;3.00;;;;;15.00;60.21;100217.34;2102925;28;46875;-63
2023/04/23 01:56:44;;;;;;;;;4.00;2.25;;;;;14.98;60.11;100211.16;2096277;28;45648;-61
2023/04/23 01:57:45;;;;;;;;;3.33;3.33;;;;;14.98;60.34;100212.97;2097924;28;46585;-62
2023/04/23 01:58:46;;;;;;;;;2.75;2.75;;;;;14.97;60.33;100213.91;2095942;28;45750;-62
2023/04/23 01:59:46;;;;;;;;;3.00;3.00;;;;;14.96;60.33;100210.38;2104586;28;46870;-62
2023/04/23 02:00:46;;;;;;;;;4.67;4.67;;;;;14.94;60.32;100212.25;2104887;28;46330;-62
2023/04/23 02:01:47;;;;;;;;;4.00;3.67;;;;;14.95;60.78;100208.66;2104731;28;46477;-61
2023/04/23 02:02:47;;;;;;;;;7.33;6.00;;;;;14.96;60.88;100207.72;2103882;28;46718;-63
2023/04/23 02:03:49;;;;;;;;;6.00;6.00;;;;;14.96;60.64;100207.72;2104325;28;46253;-62
2023/04/23 02:04:52;;;;;;;;;6.50;5.50;;;;;14.97;60.46;100196.06;2104653;27;46750;-63
2023/04/23 02:05:53;;;;;;;;;3.25;2.75;;;;;14.99;60.85;100196.00;2098708;28;46440;-63
2023/04/23 02:06:54;;;;;;;;;4.25;4.25;;;;;14.99;61.13;100194.22;2096146;28;46737;-61
2023/04/23 02:07:55;;;;;;;;;3.25;3.25;;;;;14.99;60.53;100196.00;2096281;28;46518;-63
2023/04/23 02:08:56;;;;;;;;;5.50;4.00;;;;;14.99;60.92;100199.56;2096693;28;45486;-63
2023/04/23 02:09:56;;;;;;;;;5.67;5.67;;;;;15.01;61.12;100188.81;2096495;28;45159;-62
2023/04/23 02:10:57;;;;;;;;;7.00;5.00;;;;;15.01;60.68;100195.00;2098903;28;46692;-62
2023/04/23 02:11:57;;;;;;;;;4.33;3.00;;;;;15.00;60.96;100193.28;2104354;27;45812;-61
2023/04/23 02:12:58;;;;;;;;;3.67;3.67;;;;;15.00;60.73;100190.59;2104295;28;46525;-62
2023/04/23 02:13:59;;;;;;;;;5.33;4.00;;;;;15.00;60.99;100195.09;2102828;28;46517;-61
2023/04/23 02:14:59;;;;;;;;;4.20;4.20;;;;;14.98;61.21;100197.81;2097288;28;46262;-62
2023/04/23 02:16:00;;;;;;;;;3.00;3.00;;;;;14.98;61.01;100202.28;2104836;28;45823;-61
2023/04/23 02:17:01;;;;;;;;;6.00;6.00;;;;;14.97;61.08;100200.56;2099758;28;46906;-63
2023/04/23 02:18:02;;;;;;;;;4.00;4.00;;;;;14.96;60.75;100205.03;2086439;28;45615;-62
2023/04/23 02:19:02;;;;;;;;;13.25;12.25;;;;;14.96;61.11;100201.50;2094734;28;46604;-62
2023/04/23 02:20:03;;;;;;;;;18.25;14.00;;;;;14.97;60.72;100208.56;2101312;28;46234;-63
2023/04/23 02:21:03;;;;;;;;;13.25;10.50;;;;;14.97;60.82;100209.44;2096444;28;45706;-63
2023/04/23 02:22:03;;;;;;;;;7.00;7.00;;;;;14.96;60.87;100199.69;2102944;28;46318;-62
2023/04/23 02:23:04;;;;;;;;;9.75;9.25;;;;;14.95;60.97;100203.31;2103976;28;46291;-62
2023/04/23 02:24:05;;;;;;;;;8.20;8.20;;;;;14.94;60.78;100206.06;2096841;28;46286;-63
2023/04/23 02:25:07;;;;;;;;;17.40;17.40;;;;;14.94;61.30;100203.38;2100379;28;46546;-62
2023/04/23 02:26:07;;;;;;;;;7.50;6.75;;;;;14.94;61.25;100206.91;2104520;28;45870;-63
2023/04/23 02:27:07;;;;;;;;;5.00;5.00;;;;;14.94;60.91;100209.59;2092244;28;46587;-62
2023/04/23 02:28:10;;;;;;;;;18.75;14.25;;;;;14.92;61.13;100208.81;2091888;28;46233;-62
2023/04/23 02:29:10;;;;;;;;;10.00;9.00;;;;;14.90;61.33;100208.00;2104092;27;45711;-65
2023/04/23 02:30:11;;;;;;;;;10.25;9.50;;;;;14.89;61.08;100203.63;2107263;27;46323;-61
2023/04/23 02:31:12;;;;;;;;;13.00;12.25;;;;;14.87;61.05;100194.81;2105763;27;46897;-62
2023/04/23 02:32:12;;;;;;;;;33.25;30.75;;;;;14.87;61.28;100202.81;2093305;28;46455;-62
2023/04/23 02:33:13;;;;;;;;;24.75;19.25;;;;;14.87;61.32;100201.97;2087684;28;45419;-62
2023/04/23 02:34:13;;;;;;;;;23.75;21.00;;;;;14.87;61.30;100202.81;2100814;28;46705;-61
2023/04/23 02:35:13;;;;;;;;;12.25;11.25;;;;;14.87;61.52;100205.50;2103619;28;46366;-61
2023/04/23 02:36:14;;;;;;;;;5.00;5.00;;;;;14.87;60.97;100204.63;2095377;28;46428;-62
2023/04/23 02:37:14;;;;;;;;;7.00;7.00;;;;;14.86;61.08;100203.72;2099784;28;46981;-63
2023/04/23 02:38:15;;;;;;;;;7.00;7.00;;;;;14.87;61.07;100209.97;2104588;28;46447;-63
2023/04/23 02:39:15;;;;;;;;;8.25;8.25;;;;;14.86;61.33;100205.53;2098766;28;46733;-62
2023/04/23 02:40:16;;;;;;;;;9.00;7.33;;;;;14.85;61.32;100207.34;2096536;28;45525;-62
2023/04/23 02:41:16;;;;;;;;;14.25;11.50;;;;;14.84;61.59;100200.28;2098466;28;45619;-62
2023/04/23 02:42:16;;;;;;;;;17.75;16.25;;;;;14.82;61.40;100199.47;2099172;28;46403;-62
2023/04/23 02:43:17;;;;;;;;;17.50;16.50;;;;;14.81;61.02;100205.78;2085780;28;46234;-62
2023/04/23 02:44:17;;;;;;;;;20.75;19.25;;;;;14.81;61.61;100199.56;2086168;28;46429;-62
2023/04/23 02:45:17;;;;;;;;;9.50;9.00;;;;;14.80;61.78;100204.03;2103535;28;46399;-62
2023/04/23 02:46:18;;;;;;;;;12.00;9.50;;;;;14.81;61.31;100191.53;2095206;28;46211;-62
2023/04/23 02:47:18;;;;;;;;;5.67;5.00;;;;;14.79;61.70;100183.63;2085989;28;46184;-61
2023/04/23 02:48:20;;;;;;;;;11.50;10.50;;;;;14.79;61.54;100190.75;2094654;28;46788;-61
2023/04/23 02:49:20;;;;;;;;;16.00;12.20;;;;;14.77;61.73;100185.50;2103190;28;46868;-62
2023/04/23 02:50:21;;;;;;;;;14.75;13.75;;;;;14.77;61.33;100182.81;2095030;28;46430;-61
2023/04/23 02:51:21;;;;;;;;;8.75;8.75;;;;;14.77;61.64;100180.16;2095520;28;47025;-61
2023/04/23 02:52:21;;;;;;;;;4.00;2.00;;;;;14.76;61.29;100185.56;2095666;28;45716;-62
2023/04/23 02:53:23;;;;;;;;;6.67;6.00;;;;;14.75;61.77;100186.50;2103435;28;47021;-62
2023/04/23 02:54:23;;;;;;;;;9.80;9.00;;;;;14.73;61.50;100183.88;2102233;28;46013;-64
2023/04/23 02:55:24;;;;;;;;;4.33;4.33;;;;;14.71;61.51;100183.97;2095636;28;46629;-62
2023/04/23 02:56:25;;;;;;;;;4.00;4.00;;;;;14.70;61.49;100176.88;2090692;28;46429;-62
2023/04/23 02:57:25;;;;;;;;;6.33;5.67;;;;;14.69;61.67;100188.50;2100150;28;45076;-63
2023/04/23 02:58:26;;;;;;;;;5.67;5.00;;;;;14.68;61.96;100184.13;2096934;28;46218;-62
2023/04/23 02:59:26;;;;;;;;;9.75;9.50;;;;;14.67;61.70;100186.84;2091059;28;46227;-63
2023/04/23 03:00:26;;;;;;;;;6.75;5.50;;;;;14.67;61.74;100187.72;2090606;28;46221;-62
2023/04/23 03:01:27;;;;;;;;;10.75;10.75;;;;;14.66;61.66;100185.13;2103096;28;46230;-62
2023/04/23 03:02:27;;;;;;;;;6.00;5.67;;;;;14.65;62.25;100183.41;2104138;28;46524;-61
2023/04/23 03:03:30;;;;;;;;;4.00;3.00;;;;;14.65;61.70;100186.06;2104661;28;46610;-61
2023/04/23 03:04:30;;;;;;;;;4.25;4.25;;;;;14.63;62.22;100185.28;2102568;27;46720;-63
2023/04/23 03:05:31;;;;;;;;;4.67;4.67;;;;;14.60;61.98;100193.41;2104303;28;46473;-62
2023/04/23 03:06:33;;;;;;;;;6.75;6.75;;;;;14.61;62.39;100189.81;2103318;28;46478;-62
2023/04/23 03:07:33;;;;;;;;;9.00;8.40;;;;;14.61;62.02;100189.81;2096501;28;46453;-62
2023/04/23 03:08:34;;;;;;;;;5.33;5.33;;;;;14.60;62.00;100186.25;2086596;28;46335;-64
2023/04/23 03:09:34;;;;;;;;;7.00;5.75;;;;;14.61;62.26;100187.13;2095274;28;46694;-62
2023/04/23 03:10:34;;;;;;;;;7.33;6.67;;;;;14.59;62.03;100192.53;2104361;28;45485;-62
2023/04/23 03:11:35;;;;;;;;;7.25;6.75;;;;;14.58;62.20;100188.16;2104209;28;46428;-62
2023/04/23 03:12:35;;;;;;;;;6.75;6.00;;;;;14.59;62.53;100181.00;2097654;28;46485;-62
2023/04/23 03:13:35;;;;;;;;;4.33;4.33;;;;;14.57;62.09;100177.53;2096060;28;47075;-62
2023/04/23 03:14:36;;;;;;;;;4.00;4.00;;;;;14.56;62.30;100178.47;2100839;28;46401;-62
2023/04/23 03:15:36;;;;;;;;;6.00;5.25;;;;;14.54;62.11;100175.03;2100855;28;46894;-61
2023/04/23 03:16:36;;;;;;;;;10.75;8.50;;;;;14.53;62.14;100171.47;2101637;28;46366;-63
2023/04/23 03:17:37;;;;;;;;;7.00;7.00;;;;;14.55;62.40;100174.09;2103964;28;46403;-66
2023/04/23 03:18:37;;;;;;;;;5.00;5.00;;;;;14.55;62.63;100171.41;2102541;28;46289;-62
2023/04/23 03:19:37;;;;;;;;;4.00;4.00;;;;;14.54;62.38;100175.88;2097204;28;46242;-62
2023/04/23 03:20:38;;;;;;;;;6.00;6.00;;;;;14.53;62.39;100176.81;2100091;28;46327;-62
2023/04/23 03:21:38;;;;;;;;;4.00;4.00;;;;;14.53;62.43;100171.47;2105733;28;45709;-62
2023/04/23 03:22:39;;;;;;;;;5.25;3.75;;;;;14.51;62.33;100168.03;2101687;28;46228;-64
2023/04/23 03:23:39;;;;;;;;;6.00;5.00;;;;;14.49;62.20;100161.91;2104103;28;46342;-62
2023/04/23 03:24:40;;;;;;;;;5.25;5.00;;;;;14.49;62.05;100169.03;2106190;28;45545;-61
2023/04/23 03:25:40;;;;;;;;;5.67;4.33;;;;;14.48;62.34;100156.59;2091893;28;46617;-62
2023/04/23 03:26:40;;;;;;;;;4.00;2.67;;;;;14.47;61.85;100158.41;2087648;28;46413;-62
2023/04/23 03:27:41;;;;;;;;;7.00;6.00;;;;;14.46;62.31;100154.00;2103604;27;46361;-62
2023/04/23 03:28:41;;;;;;;;;4.33;2.67;;;;;14.46;62.29;100150.47;2099137;28;45626;-62
2023/04/23 03:29:41;;;;;;;;;7.00;5.67;;;;;14.45;62.26;100154.09;2105814;28;46247;-62
2023/04/23 03:30:42;;;;;;;;;6.00;5.00;;;;;14.45;62.35;100164.75;2101560;28;46427;-62
2023/04/23 03:31:42;;;;;;;;;4.33;4.33;;;;;14.44;62.48;100161.22;2097372;28;45906;-62
2023/04/23 03:32:42;;;;;;;;;3.00;3.00;;;;;14.44;62.71;100158.56;2102717;27;47501;-63
2023/04/23 03:33:43;;;;;;;;;8.00;5.67;;;;;14.46;62.31;100159.34;2105442;28;46627;-61
2023/04/23 03:34:43;;;;;;;;;6.67;6.67;;;;;14.46;62.53;100161.16;2105603;28;46831;-62
2023/04/23 03:35:43;;;;;;;;;4.00;3.33;;;;;14.45;62.70;100157.63;2105293;28;46214;-62
2023/04/23 03:36:45;;;;;;;;;6.00;5.00;;;;;14.45;62.44;100156.75;2101420;28;46921;-64
2023/04/23 03:37:45;;;;;;;;;3.75;3.75;;;;;14.47;62.24;100153.06;2104100;28;46477;-63
2023/04/23 03:38:45;;;;;;;;;5.33;4.00;;;;;14.46;62.38;100151.34;2095599;28;47169;-63
2023/04/23 03:39:46;;;;;;;;;9.00;5.67;;;;;14.46;62.32;100150.47;2094679;28;46793;-62
2023/04/23 03:40:46;;;;;;;;;5.67;3.67;;;;;14.48;62.42;100167.28;2103112;28;45540;-61
2023/04/23 03:41:46;;;;;;;;;3.67;3.67;;;;;14.47;62.37;100154.88;2104274;28;46309;-63
2023/04/23 03:42:47;;;;;;;;;5.67;4.33;;;;;14.47;62.45;100150.41;2105788;28;46809;-61
2023/04/23 03:43:47;;;;;;;;;5.33;4.00;;;;;14.46;62.35;100155.81;2103920;28;46958;-62
2023/04/23 03:44:48;;;;;;;;;10.00;9.75;;;;;14.44;62.34;100161.22;2097304;28;45470;-62
2023/04/23 03:45:48;;;;;;;;;40.00;34.75;;;;;14.43;62.28;100151.44;2088193;28;46505;-62
2023/04/23 03:46:48;;;;;;;;;19.00;17.50;;;;;14.44;62.39;100155.88;2087754;28;46379;-62
2023/04/23 03:47:49;;;;;;;;;32.25;29.25;;;;;14.43;62.60;100146.13;2097451;28;45000;-63
2023/04/23 03:48:49;;;;;;;;;21.00;18.50;;;;;14.42;62.50;100149.72;2100706;28;46408;-63
2023/04/23 03:49:49;;;;;;;;;13.50;13.00;;;;;14.41;62.70;100145.31;2105185;27;46211;-62
2023/04/23 03:50:50;;;;;;;;;36.00;30.25;;;;;14.41;62.19;100151.53;2105537;28;45706;-62
2023/04/23 03:51:50;;;;;;;;;44.50;35.50;;;;;14.42;62.60;100160.41;2105381;28;46725;-62
2023/04/23 03:52:50;;;;;;;;;27.50;26.25;;;;;14.43;62.55;100156.78;2096625;28;46858;-63
2023/04/23 03:53:51;;;;;;;;;87.00;80.50;;;;;14.44;62.37;100155.88;2096785;28;46600;-63
2023/04/23 03:54:51;;;;;;;;;61.50;49.25;;;;;14.44;62.51;100147.88;2105820;27;46034;-63
2023/04/23 03:55:51;;;;;;;;;67.50;53.75;;;;;14.45;62.73;100154.09;2101597;28;45610;-63
2023/04/23 03:56:52;;;;;;;;;37.25;33.00;;;;;14.45;62.64;100156.75;2105571;28;45875;-63
2023/04/23 03:57:52;;;;;;;;;27.00;27.00;;;;;14.43;63.08;100160.31;2098988;28;46744;-63
2023/04/23 03:58:52;;;;;;;;;30.50;28.50;;;;;14.42;62.94;100153.25;2087708;28;46537;-62
2023/04/23 03:59:52;;;;;;;;;24.75;22.75;;;;;14.43;62.50;100148.78;2088212;28;46667;-62
2023/04/23 04:00:53;;;;;;;;;11.00;8.75;;;;;14.43;62.59;100155.00;2097191;28;45733;-62
2023/04/23 04:01:53;;;;;;;;;12.75;12.75;;;;;14.42;62.70;100152.38;2097022;28;46848;-63
2023/04/23 04:02:54;;;;;;;;;17.25;15.50;;;;;14.43;62.73;100151.44;2086941;28;46461;-62
2023/04/23 04:03:54;;;;;;;;;13.00;12.00;;;;;14.41;62.63;100145.31;2087867;28;46173;-64
2023/04/23 04:04:55;;;;;;;;;14.00;11.75;;;;;14.39;62.61;100145.41;2101915;27;46514;-63
2023/04/23 04:05:55;;;;;;;;;12.25;11.75;;;;;14.37;62.41;100144.59;2099620;28;46588;-63
2023/04/23 04:06:56;;;;;;;;;19.50;17.50;;;;;14.37;62.80;100149.94;2097550;28;46438;-63
2023/04/23 04:07:57;;;;;;;;;18.60;17.40;;;;;14.36;62.52;100145.56;2097286;28;45862;-64
2023/04/23 04:08:57;;;;;;;;;14.75;14.75;;;;;14.39;62.42;100148.06;2100241;28;45901;-64
2023/04/23 04:09:57;;;;;;;;;15.25;14.00;;;;;14.40;62.56;100156.94;2105540;28;45474;-62
2023/04/23 04:10:58;;;;;;;;;9.00;8.25;;;;;14.40;62.61;100154.28;2102552;28;45574;-64
2023/04/23 04:11:58;;;;;;;;;3.67;3.67;;;;;14.40;62.44;100155.13;2101979;28;46328;-62
2023/04/23 04:12:58;;;;;;;;;6.33;6.33;;;;;14.37;62.54;100149.94;2097194;28;46384;-63
2023/04/23 04:13:59;;;;;;;;;6.33;5.33;;;;;14.36;62.49;100145.56;2093710;28;46399;-63
2023/04/23 04:14:59;;;;;;;;;6.67;6.67;;;;;14.37;62.68;100146.41;2094917;28;46536;-61
2023/04/23 04:16:00;;;;;;;;;7.00;7.00;;;;;14.37;62.54;100138.41;2097052;28;46339;-62
2023/04/23 04:17:00;;;;;;;;;6.33;5.00;;;;;14.39;62.69;100133.84;2092451;28;46263;-63
2023/04/23 04:18:00;;;;;;;;;7.00;7.00;;;;;14.40;62.53;100135.59;2096240;28;46339;-61
2023/04/23 04:19:01;;;;;;;;;3.67;3.33;;;;;14.41;62.24;100134.66;2105557;28;46899;-62
2023/04/23 04:20:02;;;;;;;;;3.00;3.00;;;;;14.41;62.06;100134.66;2105974;28;45934;-62
2023/04/23 04:21:02;;;;;;;;;5.00;5.00;;;;;14.38;62.49;100134.78;2105382;28;46891;-63
2023/04/23 04:22:03;;;;;;;;;4.67;4.67;;;;;14.35;62.31;100122.44;2105238;28;46761;-62
2023/04/23 04:23:03;;;;;;;;;5.00;5.00;;;;;14.33;62.79;100132.31;2104426;28;46854;-63
2023/04/23 04:24:04;;;;;;;;;4.67;4.00;;;;;14.32;62.49;100132.41;2104711;28;46948;-63
2023/04/23 04:25:05;;;;;;;;;8.00;8.00;;;;;14.31;62.30;100130.66;2105853;28;45753;-62
2023/04/23 04:26:07;;;;;;;;;6.00;6.00;;;;;14.31;62.48;100125.31;2104314;27;46683;-62
2023/04/23 04:27:08;;;;;;;;;4.00;3.75;;;;;14.28;62.66;100121.00;2105606;27;45926;-63
2023/04/23 04:28:10;;;;;;;;;6.75;6.75;;;;;14.28;62.64;100128.16;2107226;27;46487;-62
2023/04/23 04:29:11;;;;;;;;;6.00;6.00;;;;;14.27;62.64;100127.28;2105469;27;46752;-64
2023/04/23 04:30:12;;;;;;;;;5.50;5.00;;;;;14.25;62.59;100121.16;2104033;27;46548;-62
2023/04/23 04:31:14;;;;;;;;;5.00;5.00;;;;;14.25;62.37;100122.97;2106138;27;46630;-61
2023/04/23 04:32:15;;;;;;;;;6.00;6.00;;;;;14.25;62.70;100118.47;2102926;28;46805;-63
2023/04/23 04:33:15;;;;;;;;;5.50;5.00;;;;;14.24;62.30;100114.09;2097970;28;46096;-66
2023/04/23 04:34:16;;;;;;;;;5.25;4.00;;;;;14.23;62.72;100115.03;2106939;27;45499;-63
2023/04/23 04:35:17;;;;;;;;;4.00;3.25;;;;;14.24;62.62;100113.22;2096626;28;46331;-62
2023/04/23 04:36:17;;;;;;;;;5.00;4.33;;;;;14.22;62.46;100123.94;2096748;28;46737;-61
2023/04/23 04:37:19;;;;;;;;;4.00;4.00;;;;;14.19;62.57;100121.41;2104432;28;46498;-62
2023/04/23 04:38:20;;;;;;;;;3.75;3.75;;;;;14.17;62.76;100122.44;2105471;28;45934;-61
2023/04/23 04:39:21;;;;;;;;;4.00;3.75;;;;;14.13;62.58;100122.56;2105338;28;46788;-63
2023/04/23 04:40:21;;;;;;;;;5.50;5.50;;;;;14.10;62.34;100121.81;2104810;28;46545;-64
2023/04/23 04:41:24;;;;;;;;;6.00;6.00;;;;;14.10;62.88;100119.16;2105485;28;46329;-61